sensor_id;sensor_type;location;lat;lon;timestamp;temperature;humidity
10247;DHT22;5168;47.854;7.944;2022-09-03T00:00:14;13.90;99.90
10247;DHT22;5168;47.854;7.944;2022-09-03T00:08:13;13.40;99.90
10247;DHT22;5168;47.854;7.944;2022-09-03T00:11:19;13.40;99.90
10247;DHT22;5168;47.854;7.944;2022-09-03T00:16:23;13.20;99.90
10247;DHT22;5168;47.854;7.944;2022-09-03T00:18:55;13.80;99.90
10247;DHT22;5168;47.854;7.944;2022-09-03T00:21:38;13.80;99.90
10247;DHT22;5168;47.854;7.944;2022-09-03T00:24:07;14.30;99.90
10247;DHT22;5168;47.854;7.944;2022-09-03T00:26:36;13.80;99.90
10247;DHT22;5168;47.854;7.944;2022-09-03T00:29:09;13.90;99.90
10247;DHT22;5168;47.854;7.944;2022-09-03T00:31:50;13.80;99.90
10247;DHT22;5168;47.854;7.944;2022-09-03T00:34:30;14.10;99.90
10247;DHT22;5168;47.854;7.944;2022-09-03T00:39:25;14.10;99.90
10247;DHT22;5168;47.854;7.944;2022-09-03T00:42:31;14.10;99.90
10247;DHT22;5168;47.854;7.944;2022-09-03T00:47:52;13.70;99.90
10247;DHT22;5168;47.854;7.944;2022-09-03T00:50:45;14.10;99.90
10247;DHT22;5168;47.854;7.944;2022-09-03T00:56:23;13.90;99.90
10247;DHT22;5168;47.854;7.944;2022-09-03T00:59:10;14.00;99.90
10247;DHT22;5168;47.854;7.944;2022-09-03T01:07:45;13.80;99.90
10247;DHT22;5168;47.854;7.944;2022-09-03T01:10:29;13.60;99.90
10247;DHT22;5168;47.854;7.944;2022-09-03T01:26:31;13.60;99.90
10247;DHT22;5168;47.854;7.944;2022-09-03T01:31:45;12.90;99.90
10247;DHT22;5168;47.854;7.944;2022-09-03T01:34:32;13.10;99.90
10247;DHT22;5168;47.854;7.944;2022-09-03T01:37:24;13.20;99.90
10247;DHT22;5168;47.854;7.944;2022-09-03T01:46:07;13.20;99.90
10247;DHT22;5168;47.854;7.944;2022-09-03T01:48:41;12.80;99.90
10247;DHT22;5168;47.854;7.944;2022-09-03T01:51:17;13.30;99.90
10247;DHT22;5168;47.854;7.944;2022-09-03T02:02:21;13.00;99.90
10247;DHT22;5168;47.854;7.944;2022-09-03T02:05:01;13.00;99.90
10247;DHT22;5168;47.854;7.944;2022-09-03T02:07:32;12.90;99.90
10247;DHT22;5168;47.854;7.944;2022-09-03T02:10:00;13.20;99.90
10247;DHT22;5168;47.854;7.944;2022-09-03T02:12:28;13.00;99.90
10247;DHT22;5168;47.854;7.944;2022-09-03T02:14:58;12.80;99.90
10247;DHT22;5168;47.854;7.944;2022-09-03T02:17:24;13.20;99.90
10247;DHT22;5168;47.854;7.944;2022-09-03T02:19:50;13.30;99.90
10247;DHT22;5168;47.854;7.944;2022-09-03T02:22:16;12.60;99.90
10247;DHT22;5168;47.854;7.944;2022-09-03T02:24:41;12.60;99.90
10247;DHT22;5168;47.854;7.944;2022-09-03T02:27:08;12.90;99.90
10247;DHT22;5168;47.854;7.944;2022-09-03T02:34:25;12.90;99.90
10247;DHT22;5168;47.854;7.944;2022-09-03T02:36:51;13.30;99.90
10247;DHT22;5168;47.854;7.944;2022-09-03T02:39:16;12.40;99.90
10247;DHT22;5168;47.854;7.944;2022-09-03T02:44:19;12.60;99.90
10247;DHT22;5168;47.854;7.944;2022-09-03T02:47:03;13.00;99.90
10247;DHT22;5168;47.854;7.944;2022-09-03T02:49:30;13.00;99.90
10247;DHT22;5168;47.854;7.944;2022-09-03T02:52:04;13.40;99.90
10247;DHT22;5168;47.854;7.944;2022-09-03T02:54:31;12.80;99.90
10247;DHT22;5168;47.854;7.944;2022-09-03T02:57:00;12.70;99.90
10247;DHT22;5168;47.854;7.944;2022-09-03T02:59:26;13.60;99.90
10247;DHT22;5168;47.854;7.944;2022-09-03T03:04:20;13.60;99.90
10247;DHT22;5168;47.854;7.944;2022-09-03T03:06:46;13.30;99.90
10247;DHT22;5168;47.854;7.944;2022-09-03T03:09:11;13.00;99.90
10247;DHT22;5168;47.854;7.944;2022-09-03T03:11:37;12.90;99.90
10247;DHT22;5168;47.854;7.944;2022-09-03T03:18:56;13.50;99.90
10247;DHT22;5168;47.854;7.944;2022-09-03T03:21:22;13.60;99.90
10247;DHT22;5168;47.854;7.944;2022-09-03T03:23:47;13.50;99.90
10247;DHT22;5168;47.854;7.944;2022-09-03T03:26:16;12.80;99.90
10247;DHT22;5168;47.854;7.944;2022-09-03T03:28:43;13.50;99.90
10247;DHT22;5168;47.854;7.944;2022-09-03T03:31:18;13.20;99.90
10247;DHT22;5168;47.854;7.944;2022-09-03T03:33:49;13.30;99.90
10247;DHT22;5168;47.854;7.944;2022-09-03T03:36:15;13.30;99.90
10247;DHT22;5168;47.854;7.944;2022-09-03T03:38:43;13.40;99.90
10247;DHT22;5168;47.854;7.944;2022-09-03T03:41:20;13.30;99.90
10247;DHT22;5168;47.854;7.944;2022-09-03T03:43:46;12.40;99.90
10247;DHT22;5168;47.854;7.944;2022-09-03T03:46:13;13.60;99.90
10247;DHT22;5168;47.854;7.944;2022-09-03T03:48:39;13.10;99.90
10247;DHT22;5168;47.854;7.944;2022-09-03T03:51:07;13.00;99.90
10247;DHT22;5168;47.854;7.944;2022-09-03T03:53:35;13.40;99.90
10247;DHT22;5168;47.854;7.944;2022-09-03T03:56:04;13.40;99.90
10247;DHT22;5168;47.854;7.944;2022-09-03T03:58:31;13.40;99.90
10247;DHT22;5168;47.854;7.944;2022-09-03T04:01:07;13.30;99.90
10247;DHT22;5168;47.854;7.944;2022-09-03T04:03:34;13.20;99.90
10247;DHT22;5168;47.854;7.944;2022-09-03T04:06:00;13.50;99.90
10247;DHT22;5168;47.854;7.944;2022-09-03T04:08:26;12.60;99.90
10247;DHT22;5168;47.854;7.944;2022-09-03T04:10:52;13.50;99.90
10247;DHT22;5168;47.854;7.944;2022-09-03T04:13:18;13.10;99.90
10247;DHT22;5168;47.854;7.944;2022-09-03T04:23:03;13.20;99.90
10247;DHT22;5168;47.854;7.944;2022-09-03T04:25:29;13.40;99.90
10247;DHT22;5168;47.854;7.944;2022-09-03T04:27:55;13.60;99.90
10247;DHT22;5168;47.854;7.944;2022-09-03T04:32:50;13.10;99.90
10247;DHT22;5168;47.854;7.944;2022-09-03T04:35:23;12.90;99.90
10247;DHT22;5168;47.854;7.944;2022-09-03T04:45:08;13.10;99.90
10247;DHT22;5168;47.854;7.944;2022-09-03T04:50:03;13.10;99.90
10247;DHT22;5168;47.854;7.944;2022-09-03T04:52:29;13.40;99.90
10247;DHT22;5168;47.854;7.944;2022-09-03T04:54:56;12.70;99.90
10247;DHT22;5168;47.854;7.944;2022-09-03T04:57:22;13.00;99.90
10247;DHT22;5168;47.854;7.944;2022-09-03T04:59:48;12.80;99.90
10247;DHT22;5168;47.854;7.944;2022-09-03T05:02:13;13.40;99.90
10247;DHT22;5168;47.854;7.944;2022-09-03T05:04:40;13.20;99.90
10247;DHT22;5168;47.854;7.944;2022-09-03T05:07:06;13.60;99.90
10247;DHT22;5168;47.854;7.944;2022-09-03T05:09:31;13.00;99.90
10247;DHT22;5168;47.854;7.944;2022-09-03T05:11:57;13.40;99.90
10247;DHT22;5168;47.854;7.944;2022-09-03T05:14:22;13.30;99.90
10247;DHT22;5168;47.854;7.944;2022-09-03T05:16:48;13.50;99.90
10247;DHT22;5168;47.854;7.944;2022-09-03T05:19:14;13.30;99.90
10247;DHT22;5168;47.854;7.944;2022-09-03T05:21:40;13.20;99.90
10247;DHT22;5168;47.854;7.944;2022-09-03T05:24:07;13.40;99.90
10247;DHT22;5168;47.854;7.944;2022-09-03T05:26:36;13.20;99.90
10247;DHT22;5168;47.854;7.944;2022-09-03T05:29:04;13.10;99.90
10247;DHT22;5168;47.854;7.944;2022-09-03T05:31:32;12.70;99.90
10247;DHT22;5168;47.854;7.944;2022-09-03T05:34:01;13.50;99.90
10247;DHT22;5168;47.854;7.944;2022-09-03T05:36:29;13.10;99.90
10247;DHT22;5168;47.854;7.944;2022-09-03T05:38:57;13.20;99.90
10247;DHT22;5168;47.854;7.944;2022-09-03T05:43:51;13.10;99.90
10247;DHT22;5168;47.854;7.944;2022-09-03T05:46:20;13.10;99.90
10247;DHT22;5168;47.854;7.944;2022-09-03T05:48:45;13.10;99.90
10247;DHT22;5168;47.854;7.944;2022-09-03T05:51:15;12.80;99.90
10247;DHT22;5168;47.854;7.944;2022-09-03T05:53:43;13.30;99.90
10247;DHT22;5168;47.854;7.944;2022-09-03T05:56:20;13.20;99.90
10247;DHT22;5168;47.854;7.944;2022-09-03T05:58:50;13.60;99.90
10247;DHT22;5168;47.854;7.944;2022-09-03T06:03:45;12.70;99.90
10247;DHT22;5168;47.854;7.944;2022-09-03T06:06:12;13.60;99.90
10247;DHT22;5168;47.854;7.944;2022-09-03T06:08:38;13.00;99.90
10247;DHT22;5168;47.854;7.944;2022-09-03T06:11:05;13.60;99.90
10247;DHT22;5168;47.854;7.944;2022-09-03T06:13:31;13.80;99.90
10247;DHT22;5168;47.854;7.944;2022-09-03T06:18:25;13.30;99.90
10247;DHT22;5168;47.854;7.944;2022-09-03T06:20:55;13.60;99.90
10247;DHT22;5168;47.854;7.944;2022-09-03T06:23:22;13.00;99.90
10247;DHT22;5168;47.854;7.944;2022-09-03T06:25:48;13.80;99.90
10247;DHT22;5168;47.854;7.944;2022-09-03T06:28:23;13.60;99.90
10247;DHT22;5168;47.854;7.944;2022-09-03T06:33:16;13.90;99.90
10247;DHT22;5168;47.854;7.944;2022-09-03T06:40:38;14.30;99.90
10247;DHT22;5168;47.854;7.944;2022-09-03T06:43:03;14.90;99.90
10247;DHT22;5168;47.854;7.944;2022-09-03T06:45:29;14.70;99.90
10247;DHT22;5168;47.854;7.944;2022-09-03T06:50:21;15.20;99.90
10247;DHT22;5168;47.854;7.944;2022-09-03T06:52:52;15.00;99.90
10247;DHT22;5168;47.854;7.944;2022-09-03T06:55:20;14.50;99.90
10247;DHT22;5168;47.854;7.944;2022-09-03T06:57:45;14.70;99.90
10247;DHT22;5168;47.854;7.944;2022-09-03T07:00:12;15.00;99.90
10247;DHT22;5168;47.854;7.944;2022-09-03T07:05:06;15.40;99.90
10247;DHT22;5168;47.854;7.944;2022-09-03T07:07:32;15.70;99.90
10247;DHT22;5168;47.854;7.944;2022-09-03T07:09:58;15.50;99.90
10247;DHT22;5168;47.854;7.944;2022-09-03T07:12:23;15.80;99.90
10247;DHT22;5168;47.854;7.944;2022-09-03T07:19:42;16.00;99.90
10247;DHT22;5168;47.854;7.944;2022-09-03T07:22:07;16.00;99.90
10247;DHT22;5168;47.854;7.944;2022-09-03T07:29:29;16.50;99.90
10247;DHT22;5168;47.854;7.944;2022-09-03T07:31:55;16.20;99.90
10247;DHT22;5168;47.854;7.944;2022-09-03T07:34:21;16.60;99.90
10247;DHT22;5168;47.854;7.944;2022-09-03T07:41:43;16.60;99.90
10247;DHT22;5168;47.854;7.944;2022-09-03T07:44:14;16.80;99.90
10247;DHT22;5168;47.854;7.944;2022-09-03T07:46:43;17.00;99.90
10247;DHT22;5168;47.854;7.944;2022-09-03T07:49:10;17.20;99.90
10247;DHT22;5168;47.854;7.944;2022-09-03T07:51:37;18.40;99.90
10247;DHT22;5168;47.854;7.944;2022-09-03T07:54:08;18.40;99.90
10247;DHT22;5168;47.854;7.944;2022-09-03T07:56:36;19.10;99.90
10247;DHT22;5168;47.854;7.944;2022-09-03T07:59:02;19.10;99.90
10247;DHT22;5168;47.854;7.944;2022-09-03T08:01:29;19.80;99.90
10247;DHT22;5168;47.854;7.944;2022-09-03T08:06:24;18.60;99.90
10247;DHT22;5168;47.854;7.944;2022-09-03T08:09:01;17.90;99.90
10247;DHT22;5168;47.854;7.944;2022-09-03T08:11:27;18.10;99.90
10247;DHT22;5168;47.854;7.944;2022-09-03T08:14:01;17.70;99.90
10247;DHT22;5168;47.854;7.944;2022-09-03T08:16:29;17.80;99.90
10247;DHT22;5168;47.854;7.944;2022-09-03T08:23:53;16.80;99.90
10247;DHT22;5168;47.854;7.944;2022-09-03T08:26:20;16.50;99.90
10247;DHT22;5168;47.854;7.944;2022-09-03T08:31:17;16.30;99.90
10247;DHT22;5168;47.854;7.944;2022-09-03T08:33:53;18.10;99.90
10247;DHT22;5168;47.854;7.944;2022-09-03T08:36:20;16.20;99.90
10247;DHT22;5168;47.854;7.944;2022-09-03T08:38:48;15.70;99.90
10247;DHT22;5168;47.854;7.944;2022-09-03T08:51:05;16.20;99.90
10247;DHT22;5168;47.854;7.944;2022-09-03T08:56:10;16.00;99.90
10247;DHT22;5168;47.854;7.944;2022-09-03T08:58:37;16.10;99.90
10247;DHT22;5168;47.854;7.944;2022-09-03T09:01:22;15.80;99.90
10247;DHT22;5168;47.854;7.944;2022-09-03T09:06:50;15.70;99.90
10247;DHT22;5168;47.854;7.944;2022-09-03T09:09:46;15.60;99.90
10247;DHT22;5168;47.854;7.944;2022-09-03T09:15:35;16.10;99.90
10247;DHT22;5168;47.854;7.944;2022-09-03T09:23:07;15.90;99.90
10247;DHT22;5168;47.854;7.944;2022-09-03T09:25:47;15.50;99.90
10247;DHT22;5168;47.854;7.944;2022-09-03T09:28:22;15.50;99.90
10247;DHT22;5168;47.854;7.944;2022-09-03T09:30:52;15.70;99.90
10247;DHT22;5168;47.854;7.944;2022-09-03T09:33:18;14.90;99.90
10247;DHT22;5168;47.854;7.944;2022-09-03T09:35:45;14.70;99.90
10247;DHT22;5168;47.854;7.944;2022-09-03T09:38:12;13.40;99.90
10247;DHT22;5168;47.854;7.944;2022-09-03T09:44:01;14.30;99.90
10247;DHT22;5168;47.854;7.944;2022-09-03T09:46:38;13.90;99.90
10247;DHT22;5168;47.854;7.944;2022-09-03T09:49:28;13.90;99.90
10247;DHT22;5168;47.854;7.944;2022-09-03T09:52:07;13.40;99.90
10247;DHT22;5168;47.854;7.944;2022-09-03T09:57:01;13.30;99.90
10247;DHT22;5168;47.854;7.944;2022-09-03T09:59:28;13.10;99.90
10247;DHT22;5168;47.854;7.944;2022-09-03T10:02:07;13.40;99.90
10247;DHT22;5168;47.854;7.944;2022-09-03T10:07:15;12.90;99.90
10247;DHT22;5168;47.854;7.944;2022-09-03T10:09:44;12.80;99.90
10247;DHT22;5168;47.854;7.944;2022-09-03T10:15:10;13.00;99.90
10247;DHT22;5168;47.854;7.944;2022-09-03T10:17:58;12.80;99.90
10247;DHT22;5168;47.854;7.944;2022-09-03T10:20:40;13.20;99.90
10247;DHT22;5168;47.854;7.944;2022-09-03T10:23:26;13.20;99.90
10247;DHT22;5168;47.854;7.944;2022-09-03T10:28:25;13.00;99.90
10247;DHT22;5168;47.854;7.944;2022-09-03T10:36:38;13.00;99.90
10247;DHT22;5168;47.854;7.944;2022-09-03T10:39:26;12.90;99.90
10247;DHT22;5168;47.854;7.944;2022-09-03T10:42:33;13.30;99.90
10247;DHT22;5168;47.854;7.944;2022-09-03T10:53:41;13.50;99.90
10247;DHT22;5168;47.854;7.944;2022-09-03T10:56:15;12.80;99.90
10247;DHT22;5168;47.854;7.944;2022-09-03T10:58:56;13.10;99.90
10247;DHT22;5168;47.854;7.944;2022-09-03T11:05:04;12.90;99.90
10247;DHT22;5168;47.854;7.944;2022-09-03T11:07:45;12.90;99.90
10247;DHT22;5168;47.854;7.944;2022-09-03T11:10:19;13.00;99.90
10247;DHT22;5168;47.854;7.944;2022-09-03T11:12:49;13.00;99.90
10247;DHT22;5168;47.854;7.944;2022-09-03T11:15:31;13.10;99.90
10247;DHT22;5168;47.854;7.944;2022-09-03T11:18:25;13.20;99.90
10247;DHT22;5168;47.854;7.944;2022-09-03T11:20:51;13.20;99.90
10247;DHT22;5168;47.854;7.944;2022-09-03T11:23:20;13.50;99.90
10247;DHT22;5168;47.854;7.944;2022-09-03T11:25:51;13.80;99.90
10247;DHT22;5168;47.854;7.944;2022-09-03T11:31:32;14.50;99.90
10247;DHT22;5168;47.854;7.944;2022-09-03T11:34:06;14.00;99.90
10247;DHT22;5168;47.854;7.944;2022-09-03T11:36:36;14.30;99.90
10247;DHT22;5168;47.854;7.944;2022-09-03T11:39:21;13.50;99.90
10247;DHT22;5168;47.854;7.944;2022-09-03T11:42:12;13.90;99.90
10247;DHT22;5168;47.854;7.944;2022-09-03T11:44:45;14.50;99.90
10247;DHT22;5168;47.854;7.944;2022-09-03T11:49:50;13.90;99.90
10247;DHT22;5168;47.854;7.944;2022-09-03T11:52:30;14.20;99.90
10247;DHT22;5168;47.854;7.944;2022-09-03T11:54:57;14.60;99.90
10247;DHT22;5168;47.854;7.944;2022-09-03T11:57:30;14.60;99.90
10247;DHT22;5168;47.854;7.944;2022-09-03T12:00:14;15.50;99.90
10247;DHT22;5168;47.854;7.944;2022-09-03T12:03:03;15.00;99.90
10247;DHT22;5168;47.854;7.944;2022-09-03T12:08:37;17.40;99.90
10247;DHT22;5168;47.854;7.944;2022-09-03T12:11:23;17.90;99.90
10247;DHT22;5168;47.854;7.944;2022-09-03T12:14:18;18.30;99.90
10247;DHT22;5168;47.854;7.944;2022-09-03T12:19:51;18.10;99.90
10247;DHT22;5168;47.854;7.944;2022-09-03T12:22:19;19.10;99.90
10247;DHT22;5168;47.854;7.944;2022-09-03T12:24:45;18.70;99.90
10247;DHT22;5168;47.854;7.944;2022-09-03T12:27:15;19.70;99.90
10247;DHT22;5168;47.854;7.944;2022-09-03T12:30:00;19.80;99.90
10247;DHT22;5168;47.854;7.944;2022-09-03T12:32:35;19.70;99.90
10247;DHT22;5168;47.854;7.944;2022-09-03T12:35:19;19.30;99.90
10247;DHT22;5168;47.854;7.944;2022-09-03T12:37:45;19.40;99.90
10247;DHT22;5168;47.854;7.944;2022-09-03T12:40:22;17.80;99.90
10247;DHT22;5168;47.854;7.944;2022-09-03T12:42:48;19.10;99.90
10247;DHT22;5168;47.854;7.944;2022-09-03T12:45:20;19.50;99.90
10247;DHT22;5168;47.854;7.944;2022-09-03T12:50:23;19.70;99.90
10247;DHT22;5168;47.854;7.944;2022-09-03T12:52:55;19.70;99.90
10247;DHT22;5168;47.854;7.944;2022-09-03T12:55:50;19.40;99.90
10247;DHT22;5168;47.854;7.944;2022-09-03T12:58:32;18.90;99.90
10247;DHT22;5168;47.854;7.944;2022-09-03T13:01:10;18.50;99.90
10247;DHT22;5168;47.854;7.944;2022-09-03T13:06:28;18.40;99.90
10247;DHT22;5168;47.854;7.944;2022-09-03T13:09:01;18.80;99.90
10247;DHT22;5168;47.854;7.944;2022-09-03T13:11:31;18.90;99.90
10247;DHT22;5168;47.854;7.944;2022-09-03T13:14:08;18.80;99.90
10247;DHT22;5168;47.854;7.944;2022-09-03T13:30:04;20.30;99.90
10247;DHT22;5168;47.854;7.944;2022-09-03T13:35:23;20.60;99.90
10247;DHT22;5168;47.854;7.944;2022-09-03T13:38:05;20.40;99.90
10247;DHT22;5168;47.854;7.944;2022-09-03T13:40:47;19.70;99.90
10247;DHT22;5168;47.854;7.944;2022-09-03T13:43:24;19.70;99.90
10247;DHT22;5168;47.854;7.944;2022-09-03T13:45:53;19.60;99.90
10247;DHT22;5168;47.854;7.944;2022-09-03T13:48:27;19.40;99.90
10247;DHT22;5168;47.854;7.944;2022-09-03T13:51:27;19.00;99.90
10247;DHT22;5168;47.854;7.944;2022-09-03T13:59:00;19.70;99.90
10247;DHT22;5168;47.854;7.944;2022-09-03T14:04:46;19.00;99.90
10247;DHT22;5168;47.854;7.944;2022-09-03T14:07:20;19.20;99.90
10247;DHT22;5168;47.854;7.944;2022-09-03T14:10:10;19.60;99.90
10247;DHT22;5168;47.854;7.944;2022-09-03T14:16:23;19.80;99.90
10247;DHT22;5168;47.854;7.944;2022-09-03T14:18:39;19.70;99.90
10247;DHT22;5168;47.854;7.944;2022-09-03T14:21:18;20.20;99.90
10247;DHT22;5168;47.854;7.944;2022-09-03T14:23:58;20.00;99.90
10247;DHT22;5168;47.854;7.944;2022-09-03T14:26:31;20.30;99.90
10247;DHT22;5168;47.854;7.944;2022-09-03T14:29:29;20.00;99.90
10247;DHT22;5168;47.854;7.944;2022-09-03T14:32:29;20.10;99.90
10247;DHT22;5168;47.854;7.944;2022-09-03T14:48:54;18.80;99.90
10247;DHT22;5168;47.854;7.944;2022-09-03T14:52:09;19.00;99.90
10247;DHT22;5168;47.854;7.944;2022-09-03T14:59:54;19.00;99.90
10247;DHT22;5168;47.854;7.944;2022-09-03T15:08:35;18.70;99.90
10247;DHT22;5168;47.854;7.944;2022-09-03T15:11:23;18.70;99.90
10247;DHT22;5168;47.854;7.944;2022-09-03T15:14:14;18.40;99.90
10247;DHT22;5168;47.854;7.944;2022-09-03T15:17:04;18.60;99.90
10247;DHT22;5168;47.854;7.944;2022-09-03T15:19:53;18.50;99.90
10247;DHT22;5168;47.854;7.944;2022-09-03T15:22:35;18.90;99.90
10247;DHT22;5168;47.854;7.944;2022-09-03T15:25:30;18.70;99.90
10247;DHT22;5168;47.854;7.944;2022-09-03T15:34:34;18.80;99.90
10247;DHT22;5168;47.854;7.944;2022-09-03T15:37:17;18.70;99.90
10247;DHT22;5168;47.854;7.944;2022-09-03T15:39:45;19.40;99.90
10247;DHT22;5168;47.854;7.944;2022-09-03T15:42:25;19.00;99.90
10247;DHT22;5168;47.854;7.944;2022-09-03T15:44:54;19.20;99.90
10247;DHT22;5168;47.854;7.944;2022-09-03T15:50:47;18.40;99.90
10247;DHT22;5168;47.854;7.944;2022-09-03T15:53:32;18.70;99.90
10247;DHT22;5168;47.854;7.944;2022-09-03T15:56:13;18.60;99.90
10247;DHT22;5168;47.854;7.944;2022-09-03T16:06:58;18.80;99.90
10247;DHT22;5168;47.854;7.944;2022-09-03T16:09:50;18.50;99.90
10247;DHT22;5168;47.854;7.944;2022-09-03T16:12:39;18.70;99.90
10247;DHT22;5168;47.854;7.944;2022-09-03T16:17:43;18.50;99.90
10247;DHT22;5168;47.854;7.944;2022-09-03T16:23:03;18.40;99.90
10247;DHT22;5168;47.854;7.944;2022-09-03T16:28:28;18.90;99.90
10247;DHT22;5168;47.854;7.944;2022-09-03T16:31:14;18.80;99.90
10247;DHT22;5168;47.854;7.944;2022-09-03T16:36:43;18.40;99.90
10247;DHT22;5168;47.854;7.944;2022-09-03T16:42:23;17.90;99.90
10247;DHT22;5168;47.854;7.944;2022-09-03T16:45:16;17.80;99.90
10247;DHT22;5168;47.854;7.944;2022-09-03T16:50:46;17.30;99.90
10247;DHT22;5168;47.854;7.944;2022-09-03T16:59:25;17.30;99.90
10247;DHT22;5168;47.854;7.944;2022-09-03T17:02:29;17.30;99.90
10247;DHT22;5168;47.854;7.944;2022-09-03T17:05:34;17.00;99.90
10247;DHT22;5168;47.854;7.944;2022-09-03T17:13:41;17.10;99.90
10247;DHT22;5168;47.854;7.944;2022-09-03T17:16:37;17.00;99.90
10247;DHT22;5168;47.854;7.944;2022-09-03T17:19:38;16.40;99.90
10247;DHT22;5168;47.854;7.944;2022-09-03T17:22:44;16.80;99.90
10247;DHT22;5168;47.854;7.944;2022-09-03T17:25:32;16.70;99.90
10247;DHT22;5168;47.854;7.944;2022-09-03T17:31:35;16.60;99.90
10247;DHT22;5168;47.854;7.944;2022-09-03T17:36:32;16.70;99.90
10247;DHT22;5168;47.854;7.944;2022-09-03T17:50:17;16.30;99.90
10247;DHT22;5168;47.854;7.944;2022-09-03T17:52:47;16.00;99.90
10247;DHT22;5168;47.854;7.944;2022-09-03T17:57:52;15.80;99.90
10247;DHT22;5168;47.854;7.944;2022-09-03T18:00:23;15.70;99.90
10247;DHT22;5168;47.854;7.944;2022-09-03T18:02:55;15.80;99.90
10247;DHT22;5168;47.854;7.944;2022-09-03T18:05:40;15.40;99.90
10247;DHT22;5168;47.854;7.944;2022-09-03T18:13:31;15.30;99.90
10247;DHT22;5168;47.854;7.944;2022-09-03T18:16:30;15.10;99.90
10247;DHT22;5168;47.854;7.944;2022-09-03T18:21:46;15.10;99.90
10247;DHT22;5168;47.854;7.944;2022-09-03T18:24:46;15.60;99.90
10247;DHT22;5168;47.854;7.944;2022-09-03T18:27:41;15.50;99.90
10247;DHT22;5168;47.854;7.944;2022-09-03T18:33:12;14.70;99.90
10247;DHT22;5168;47.854;7.944;2022-09-03T18:35:57;14.70;99.90
10247;DHT22;5168;47.854;7.944;2022-09-03T18:50:28;14.10;99.90
10247;DHT22;5168;47.854;7.944;2022-09-03T19:08:50;13.90;99.90
10247;DHT22;5168;47.854;7.944;2022-09-03T19:11:45;14.40;99.90
10247;DHT22;5168;47.854;7.944;2022-09-03T19:14:51;14.40;99.90
10247;DHT22;5168;47.854;7.944;2022-09-03T19:21:28;14.40;99.90
10247;DHT22;5168;47.854;7.944;2022-09-03T19:27:28;14.50;99.90
10247;DHT22;5168;47.854;7.944;2022-09-03T19:30:13;14.30;99.90
10247;DHT22;5168;47.854;7.944;2022-09-03T19:33:27;14.00;99.90
10247;DHT22;5168;47.854;7.944;2022-09-03T19:39:24;13.80;99.90
10247;DHT22;5168;47.854;7.944;2022-09-03T19:42:21;13.90;99.90
10247;DHT22;5168;47.854;7.944;2022-09-03T19:48:17;14.20;99.90
10247;DHT22;5168;47.854;7.944;2022-09-03T19:51:14;13.90;99.90
10247;DHT22;5168;47.854;7.944;2022-09-03T19:54:03;13.80;99.90
10247;DHT22;5168;47.854;7.944;2022-09-03T19:56:49;14.20;99.90
10247;DHT22;5168;47.854;7.944;2022-09-03T19:59:38;14.30;99.90
10247;DHT22;5168;47.854;7.944;2022-09-03T20:02:26;14.10;99.90
10247;DHT22;5168;47.854;7.944;2022-09-03T20:05:15;13.80;99.90
10247;DHT22;5168;47.854;7.944;2022-09-03T20:08:00;13.70;99.90
10247;DHT22;5168;47.854;7.944;2022-09-03T20:10:46;13.70;99.90
10247;DHT22;5168;47.854;7.944;2022-09-03T20:13:16;14.00;99.90
10247;DHT22;5168;47.854;7.944;2022-09-03T20:16:08;14.40;99.90
10247;DHT22;5168;47.854;7.944;2022-09-03T20:21:22;13.60;99.90
10247;DHT22;5168;47.854;7.944;2022-09-03T20:23:53;13.20;99.90
10247;DHT22;5168;47.854;7.944;2022-09-03T20:26:34;13.70;99.90
10247;DHT22;5168;47.854;7.944;2022-09-03T20:32:10;14.00;99.90
10247;DHT22;5168;47.854;7.944;2022-09-03T20:34:57;13.80;99.90
10247;DHT22;5168;47.854;7.944;2022-09-03T20:43:13;13.50;99.90
10247;DHT22;5168;47.854;7.944;2022-09-03T20:46:08;13.10;99.90
10247;DHT22;5168;47.854;7.944;2022-09-03T20:49:47;13.30;99.90
10247;DHT22;5168;47.854;7.944;2022-09-03T20:51:55;13.90;99.90
10247;DHT22;5168;47.854;7.944;2022-09-03T20:54:27;13.40;99.90
10247;DHT22;5168;47.854;7.944;2022-09-03T20:57:03;12.90;99.90
10247;DHT22;5168;47.854;7.944;2022-09-03T21:02:11;13.40;99.90
10247;DHT22;5168;47.854;7.944;2022-09-03T21:13:19;13.70;99.90
10247;DHT22;5168;47.854;7.944;2022-09-03T21:22:02;13.40;99.90
10247;DHT22;5168;47.854;7.944;2022-09-03T21:24:46;13.20;99.90
10247;DHT22;5168;47.854;7.944;2022-09-03T21:27:16;13.40;99.90
10247;DHT22;5168;47.854;7.944;2022-09-03T21:30:06;13.10;99.90
10247;DHT22;5168;47.854;7.944;2022-09-03T21:35:29;13.40;99.90
10247;DHT22;5168;47.854;7.944;2022-09-03T21:38:06;13.60;99.90
10247;DHT22;5168;47.854;7.944;2022-09-03T21:40:34;13.60;99.90
10247;DHT22;5168;47.854;7.944;2022-09-03T21:43:18;13.00;99.90
10247;DHT22;5168;47.854;7.944;2022-09-03T21:45:52;13.40;99.90
10247;DHT22;5168;47.854;7.944;2022-09-03T21:48:25;14.10;99.90
10247;DHT22;5168;47.854;7.944;2022-09-03T21:50:59;13.30;99.90
10247;DHT22;5168;47.854;7.944;2022-09-03T21:53:38;13.40;99.90
10247;DHT22;5168;47.854;7.944;2022-09-03T21:59:02;13.60;99.90
10247;DHT22;5168;47.854;7.944;2022-09-03T22:04:08;13.90;99.90
10247;DHT22;5168;47.854;7.944;2022-09-03T22:06:45;15.90;99.90
10247;DHT22;5168;47.854;7.944;2022-09-03T22:14:35;13.30;99.90
10247;DHT22;5168;47.854;7.944;2022-09-03T22:17:13;13.40;99.90
10247;DHT22;5168;47.854;7.944;2022-09-03T22:22:38;13.40;99.90
10247;DHT22;5168;47.854;7.944;2022-09-03T22:33:34;13.30;99.90
10247;DHT22;5168;47.854;7.944;2022-09-03T22:36:39;13.50;99.90
10247;DHT22;5168;47.854;7.944;2022-09-03T22:39:24;13.70;99.90
10247;DHT22;5168;47.854;7.944;2022-09-03T22:47:32;13.00;99.90
10247;DHT22;5168;47.854;7.944;2022-09-03T22:52:38;12.80;99.90
10247;DHT22;5168;47.854;7.944;2022-09-03T22:57:34;13.20;99.90
10247;DHT22;5168;47.854;7.944;2022-09-03T23:00:04;13.20;99.90
10247;DHT22;5168;47.854;7.944;2022-09-03T23:07:56;13.20;99.90
10247;DHT22;5168;47.854;7.944;2022-09-03T23:10:27;12.90;99.90
10247;DHT22;5168;47.854;7.944;2022-09-03T23:13:19;12.80;99.90
10247;DHT22;5168;47.854;7.944;2022-09-03T23:15:57;13.70;99.90
10247;DHT22;5168;47.854;7.944;2022-09-03T23:18:27;13.30;99.90
10247;DHT22;5168;47.854;7.944;2022-09-03T23:21:05;13.80;99.90
10247;DHT22;5168;47.854;7.944;2022-09-03T23:23:39;12.90;99.90
10247;DHT22;5168;47.854;7.944;2022-09-03T23:29:19;13.60;99.90
10247;DHT22;5168;47.854;7.944;2022-09-03T23:31:47;12.70;99.90
10247;DHT22;5168;47.854;7.944;2022-09-03T23:34:14;13.00;99.90
10247;DHT22;5168;47.854;7.944;2022-09-03T23:37:05;13.40;99.90
10247;DHT22;5168;47.854;7.944;2022-09-03T23:45:10;13.20;99.90
